Donnes mto: Actuelle dimanche, 17.11.2019 19:00
Date Horaire Temp. E. Hum. E. P.atmo. Vent P. de rose Temp au vent Rafales
17.11.2019 19:00 0.8 C 88 % 885.3 hPa 0.0 km/h (0 Bft) -1.0 C 0.8 C 0.0 km/h (0 Bft)
17.11.2019 18:55 0.8 C 88 % 885.3 hPa 0.0 km/h (0 Bft) -1.0 C 0.8 C 0.0 km/h (0 Bft)
17.11.2019 18:50 0.9 C 87 % 885.3 hPa 0.0 km/h (0 Bft) -1.0 C 0.9 C 0.0 km/h (0 Bft)
17.11.2019 18:45 0.9 C 87 % 885.3 hPa 0.0 km/h (0 Bft) -1.0 C 0.9 C 0.0 km/h (0 Bft)
17.11.2019 18:40 1.1 C 88 % 885.1 hPa 0.0 km/h (0 Bft) -0.7 C 1.1 C 0.0 km/h (0 Bft)
17.11.2019 18:35 1.1 C 88 % 885.1 hPa 0.0 km/h (0 Bft) -0.7 C 1.1 C 0.0 km/h (0 Bft)
17.11.2019 18:30 1.2 C 88 % 885.1 hPa 0.0 km/h (0 Bft) -0.6 C 1.2 C 0.0 km/h (0 Bft)
17.11.2019 18:25 1.2 C 88 % 885.1 hPa 0.0 km/h (0 Bft) -0.6 C 1.2 C 0.0 km/h (0 Bft)
17.11.2019 18:20 1.2 C 88 % 884.7 hPa 0.0 km/h (0 Bft) -0.6 C 1.2 C 0.0 km/h (0 Bft)
17.11.2019 18:15 1.3 C 88 % 884.7 hPa 0.0 km/h (0 Bft) -0.5 C 1.3 C 0.0 km/h (0 Bft)
17.11.2019 18:10 1.4 C 88 % 884.7 hPa 0.0 km/h (0 Bft) -0.4 C 1.4 C 0.0 km/h (0 Bft)
17.11.2019 18:05 1.4 C 88 % 884.7 hPa 0.0 km/h (0 Bft) -0.4 C 1.4 C 0.0 km/h (0 Bft)
17.11.2019 18:00 1.5 C 88 % 884.9 hPa 0.0 km/h (0 Bft) -0.3 C 1.5 C 0.0 km/h (0 Bft)
17.11.2019 17:55 1.4 C 88 % 884.9 hPa 0.0 km/h (0 Bft) -0.4 C 1.4 C 0.0 km/h (0 Bft)
17.11.2019 17:50 1.5 C 88 % 884.9 hPa 0.0 km/h (0 Bft) -0.3 C 1.5 C 0.0 km/h (0 Bft)
17.11.2019 17:45 1.5 C 88 % 884.9 hPa 0.0 km/h (0 Bft) -0.3 C 1.5 C 0.0 km/h (0 Bft)
17.11.2019 17:40 1.5 C 88 % 884.6 hPa 0.0 km/h (0 Bft) -0.3 C 1.5 C 0.0 km/h (0 Bft)
17.11.2019 17:35 1.6 C 88 % 884.6 hPa 0.0 km/h (0 Bft) -0.2 C 1.6 C 0.0 km/h (0 Bft)
17.11.2019 17:30 1.6 C 88 % 884.6 hPa 0.0 km/h (0 Bft) -0.2 C 1.6 C 0.0 km/h (0 Bft)
17.11.2019 17:25 1.6 C 88 % 884.6 hPa 0.0 km/h (0 Bft) -0.2 C 1.6 C 0.0 km/h (0 Bft)
17.11.2019 17:20 1.6 C 88 % 884.6 hPa 0.0 km/h (0 Bft) -0.2 C 1.6 C 0.0 km/h (0 Bft)
_ Min-Heure 23:30 20:00 15:05 20:05 23:30 23:30 20:00
Minimum _ -0.2 C 83 % 884.0 hPa 0.0 km/h (0 Bft) -2.4 C -0.2 C 0.0 km/h (0 Bft)
_ Max-Heure 10:40 11:10 20:25 11:05 10:40 10:40 11:00
Maximum _ 1.9 C 89 % 891.0 hPa 1.8 km/h
E-NE (1 Bft)
0.1 C 1.9 C 5.8 km/h
N-NE (2 Bft)
Moyenne _ 1.0 C 86 % 887.3 hPa 0.1 km/h (0 Bft) -1.0 C 1.0 C 0.1 km/h (0 Bft)